Time;durP1;ratioP1;P1;durP2;ratioP2;P2;SDS_P1;SDS_P2;PMS_P1;PMS_P2;Temp;Humidity;BMP_temperature;BMP_pressure;BME280_temperature;BME280_humidity;BME280_pressure;Samples;Min_cycle;Max_cycle;Signal;HPM_P1;HPM_P2
2021/04/05 00:00:54;;;;;;;23.40;14.35;;;7.30;99.90;;;;;;4173376;28;20017;-67
2021/04/05 00:02:55;;;;;;;29.02;15.95;;;7.30;99.90;;;;;;4152934;28;20041;-68
2021/04/05 00:04:56;;;;;;;25.93;14.27;;;7.30;99.90;;;;;;4158582;28;20047;-68
2021/04/05 00:06:57;;;;;;;28.77;14.93;;;7.30;99.90;;;;;;4159892;28;20104;-68
2021/04/05 00:08:58;;;;;;;23.23;13.80;;;7.30;99.90;;;;;;4167537;28;20029;-67
2021/04/05 00:10:59;;;;;;;30.45;15.27;;;7.30;99.90;;;;;;4175100;28;20819;-67
2021/04/05 00:13:06;;;;;;;27.98;16.15;;;7.30;99.90;;;;;;4159946;28;20033;-67
2021/04/05 00:15:09;;;;;;;34.03;16.33;;;7.30;99.90;;;;;;4169267;28;20033;-67
2021/04/05 00:17:10;;;;;;;;;;;7.30;99.90;;;;;;4165716;28;20034;-68
2021/04/05 00:19:10;;;;;;;23.95;14.05;;;7.30;99.90;;;;;;4159516;28;19986;-68
2021/04/05 00:21:21;;;;;;;27.83;15.00;;;7.30;99.90;;;;;;4157389;28;20042;-68
2021/04/05 00:23:22;;;;;;;30.65;15.45;;;7.30;99.90;;;;;;4157820;28;20037;-68
2021/04/05 00:25:22;;;;;;;27.98;15.48;;;7.30;99.90;;;;;;4172446;28;20037;-68
2021/04/05 00:27:23;;;;;;;26.63;14.52;;;7.20;99.90;;;;;;4186394;28;20029;-68
2021/04/05 00:29:23;;;;;;;29.35;15.57;;;7.30;99.90;;;;;;4163064;28;20424;-67
2021/04/05 00:31:24;;;;;;;27.08;15.27;;;7.30;99.90;;;;;;4164204;28;20029;-67
2021/04/05 00:33:24;;;;;;;29.83;15.82;;;7.30;99.90;;;;;;4162934;28;20076;-68
2021/04/05 00:35:27;;;;;;;30.35;16.05;;;7.30;99.90;;;;;;4172005;28;20025;-68
2021/04/05 00:37:28;;;;;;;27.20;15.75;;;7.30;99.90;;;;;;4170195;28;20026;-67
2021/04/05 00:39:28;;;;;;;30.17;16.83;;;7.20;99.90;;;;;;4160535;28;20039;-67
2021/04/05 00:41:29;;;;;;;25.25;16.00;;;7.20;99.90;;;;;;4158940;28;20034;-67
2021/04/05 00:43:30;;;;;;;34.08;17.42;;;7.20;99.90;;;;;;4173674;28;20029;-68
2021/04/05 00:45:33;;;;;;;34.60;17.58;;;7.30;99.90;;;;;;4173375;28;20035;-67
2021/04/05 00:47:44;;;;;;;29.13;16.63;;;7.30;99.90;;;;;;4169772;28;20038;-67
2021/04/05 00:49:45;;;;;;;23.52;14.85;;;7.20;99.90;;;;;;4160705;28;20045;-67
2021/04/05 00:51:45;;;;;;;27.20;15.55;;;7.20;99.90;;;;;;4161310;28;20053;-68
2021/04/05 00:53:47;;;;;;;30.00;16.25;;;7.20;99.90;;;;;;4158886;28;20096;-67
2021/04/05 00:55:48;;;;;;;29.55;16.05;;;7.20;99.90;;;;;;4175889;28;20496;-67
2021/04/05 00:57:50;;;;;;;30.20;15.77;;;7.20;99.90;;;;;;4166838;28;20034;-67
2021/04/05 00:59:51;;;;;;;32.65;16.15;;;7.30;99.90;;;;;;4161599;28;20058;-68
2021/04/05 01:01:51;;;;;;;30.52;15.68;;;7.30;99.90;;;;;;4158352;28;20034;-67
2021/04/05 01:03:53;;;;;;;26.02;14.65;;;7.30;99.90;;;;;;4159187;28;20073;-68
2021/04/05 01:06:00;;;;;;;31.73;16.08;;;7.30;99.90;;;;;;4175069;28;20124;-67
2021/04/05 01:08:01;;;;;;;26.33;15.73;;;7.30;99.90;;;;;;4159033;28;20041;-68
2021/04/05 01:10:05;;;;;;;38.17;15.93;;;7.30;99.90;;;;;;4160996;28;20551;-68
2021/04/05 01:12:07;;;;;;;25.90;14.98;;;7.30;99.90;;;;;;4177777;28;20041;-67
2021/04/05 01:14:07;;;;;;;24.90;15.10;;;7.30;99.90;;;;;;4167252;28;20045;-68
2021/04/05 01:16:09;;;;;;;29.95;15.20;;;7.30;99.90;;;;;;4161749;28;20033;-68
2021/04/05 01:18:11;;;;;;;27.63;16.00;;;7.20;99.90;;;;;;4157378;28;20073;-68
2021/04/05 01:20:13;;;;;;;26.75;16.17;;;7.20;99.90;;;;;;4153146;28;20033;-68
2021/04/05 01:22:14;;;;;;;25.05;14.35;;;7.30;99.90;;;;;;4170930;28;20052;-68
2021/04/05 01:24:14;;;;;;;28.70;14.68;;;7.30;99.90;;;;;;4173396;28;20116;-67
2021/04/05 01:26:16;;;;;;;29.38;15.90;;;7.30;99.90;;;;;;4170105;28;20029;-67
2021/04/05 01:28:17;;;;;;;27.40;15.45;;;7.30;99.90;;;;;;4166993;28;20045;-67
2021/04/05 01:30:28;;;;;;;27.90;15.80;;;7.30;99.90;;;;;;4164302;28;20033;-68
2021/04/05 01:32:29;;;;;;;28.98;15.15;;;7.30;99.90;;;;;;4165930;28;20029;-68
2021/04/05 01:34:29;;;;;;;31.40;16.75;;;7.30;99.90;;;;;;4161322;28;20481;-68
2021/04/05 01:36:30;;;;;;;29.20;14.98;;;7.30;99.90;;;;;;4162909;28;20612;-68
2021/04/05 01:38:46;;;;;;;28.77;16.23;;;7.40;99.90;;;;;;4162371;28;20040;-68
2021/04/05 01:40:54;;;;;;;29.70;16.25;;;7.30;99.90;;;;;;4176609;28;20413;-68
2021/04/05 01:42:54;;;;;;;32.40;16.17;;;7.40;99.90;;;;;;4170570;28;20029;-67
2021/04/05 01:44:57;;;;;;;28.98;16.08;;;7.40;99.90;;;;;;4167293;28;20044;-67
2021/04/05 01:46:58;;;;;;;28.88;16.88;;;7.30;99.90;;;;;;4170050;28;20029;-68
2021/04/05 01:49:00;;;;;;;27.95;16.45;;;7.30;99.90;;;;;;4177102;28;20033;-67
2021/04/05 01:51:03;;;;;;;32.03;17.75;;;7.30;99.90;;;;;;4173585;28;20029;-68
2021/04/05 01:53:05;;;;;;;;;;;7.30;99.90;;;;;;4187615;28;21516;-67
2021/04/05 01:55:07;;;;;;;33.20;15.75;;;7.30;99.90;;;;;;4173210;28;19909;-68
2021/04/05 01:57:09;;;;;;;28.38;17.42;;;7.30;99.90;;;;;;4164939;28;20120;-68
2021/04/05 01:59:12;;;;;;;34.00;17.38;;;7.40;99.90;;;;;;4178371;28;20060;-68
2021/04/05 02:01:15;;;;;;;30.77;16.15;;;7.30;99.90;;;;;;4165174;28;20041;-68
2021/04/05 02:03:17;;;;;;;35.97;16.67;;;7.30;99.90;;;;;;4166299;28;20029;-68
2021/04/05 02:05:18;;;;;;;32.13;16.65;;;7.30;99.90;;;;;;4165078;28;20033;-67
2021/04/05 02:07:19;;;;;;;30.55;16.20;;;7.30;99.90;;;;;;4168998;28;20044;-68
2021/04/05 02:09:19;;;;;;;31.48;15.82;;;7.30;99.90;;;;;;4165938;28;20038;-68
2021/04/05 02:11:29;;;;;;;29.70;16.60;;;7.30;99.90;;;;;;4167122;28;20108;-67
2021/04/05 02:13:29;;;;;;;30.35;17.13;;;7.30;99.90;;;;;;4161561;28;20033;-68
2021/04/05 02:15:33;;;;;;;33.95;16.77;;;7.30;99.90;;;;;;4159242;28;20037;-67
2021/04/05 02:17:34;;;;;;;30.05;15.48;;;7.40;99.90;;;;;;4177283;28;20063;-68
2021/04/05 02:19:35;;;;;;;24.67;14.63;;;7.30;99.90;;;;;;4162511;28;20033;-67
2021/04/05 02:21:35;;;;;;;33.58;17.05;;;7.30;99.90;;;;;;4161904;28;20095;-67
2021/04/05 02:23:36;;;;;;;27.92;15.60;;;7.40;99.90;;;;;;4179652;28;20032;-68
2021/04/05 02:26:05;;;;;;;28.48;15.30;;;7.30;99.90;;;;;;4156061;28;20508;-67
2021/04/05 02:27:57;;;;;;;27.42;15.98;;;7.30;99.90;;;;;;4162698;28;20068;-68
2021/04/05 02:29:58;;;;;;;34.92;17.15;;;7.40;99.90;;;;;;4158026;28;20069;-67
2021/04/05 02:31:59;;;;;;;30.30;16.35;;;7.40;99.90;;;;;;4160000;28;20091;-67
2021/04/05 02:34:00;;;;;;;30.00;15.27;;;7.40;99.90;;;;;;4160825;28;20042;-67
2021/04/05 02:36:01;;;;;;;31.42;16.33;;;7.40;99.90;;;;;;4175753;28;20035;-68
2021/04/05 02:38:03;;;;;;;28.73;15.90;;;7.40;99.90;;;;;;4162454;28;20128;-67
2021/04/05 02:40:05;;;;;;;30.33;16.98;;;7.40;99.90;;;;;;4174455;28;20693;-67
2021/04/05 02:42:06;;;;;;;28.20;16.08;;;7.40;99.90;;;;;;4160162;28;20044;-67
2021/04/05 02:44:08;;;;;;;33.92;16.88;;;7.50;99.90;;;;;;4159320;28;20033;-67
2021/04/05 02:46:23;;;;;;;28.17;16.07;;;7.40;99.90;;;;;;4160995;28;20045;-68
2021/04/05 02:48:26;;;;;;;27.17;15.73;;;7.50;99.90;;;;;;4163747;28;20288;-68
2021/04/05 02:50:29;;;;;;;35.95;15.90;;;7.40;99.90;;;;;;4159868;28;20095;-68
2021/04/05 02:52:33;;;;;;;33.42;16.33;;;7.50;99.90;;;;;;4166418;28;20102;-67
2021/04/05 02:54:34;;;;;;;31.73;15.48;;;7.50;99.90;;;;;;4158066;28;20029;-67
2021/04/05 02:56:37;;;;;;;29.52;15.98;;;7.50;99.90;;;;;;4161078;28;20035;-68
2021/04/05 02:58:44;;;;;;;30.15;15.55;;;7.60;99.90;;;;;;4161827;28;20045;-68
2021/04/05 03:00:45;;;;;;;31.05;15.77;;;7.50;99.90;;;;;;4160263;28;20505;-68
2021/04/05 03:02:49;;;;;;;31.17;15.65;;;7.50;99.90;;;;;;4143024;28;20030;-67
2021/04/05 03:04:50;;;;;;;38.05;16.23;;;7.60;99.90;;;;;;4159869;28;20047;-67
2021/04/05 03:06:51;;;;;;;28.48;15.65;;;7.50;99.90;;;;;;4160510;28;20381;-67
2021/04/05 03:08:52;;;;;;;34.80;16.23;;;7.60;99.90;;;;;;4158260;28;20034;-68
2021/04/05 03:10:56;;;;;;;34.30;15.43;;;7.60;99.90;;;;;;4157402;28;20038;-67
2021/04/05 03:12:58;;;;;;;29.70;14.60;;;7.60;99.90;;;;;;4157081;28;20038;-67
2021/04/05 03:14:59;;;;;;;29.20;14.80;;;7.70;99.90;;;;;;4159954;28;20742;-68
2021/04/05 03:17:01;;;;;;;35.08;15.10;;;7.60;99.90;;;;;;4157898;28;20036;-67
2021/04/05 03:19:03;;;;;;;36.73;16.07;;;7.60;99.90;;;;;;4154827;28;20040;-67
2021/04/05 03:21:06;;;;;;;30.58;15.70;;;7.60;99.90;;;;;;4160455;28;20314;-67
2021/04/05 03:23:07;;;;;;;35.97;16.67;;;7.60;99.90;;;;;;4161422;28;20358;-67
2021/04/05 03:25:33;;;;;;;35.25;16.58;;;7.60;99.90;;;;;;4175101;28;20036;-67
2021/04/05 03:27:34;;;;;;;31.88;15.95;;;7.60;99.90;;;;;;4155498;28;20191;-68
2021/04/05 03:29:37;;;;;;;29.25;14.50;;;7.60;99.90;;;;;;4157517;28;20065;-68
2021/04/05 03:31:40;;;;;;;35.55;16.83;;;7.60;99.90;;;;;;4160089;28;20033;-67
2021/04/05 03:33:58;;;;;;;41.40;16.17;;;7.60;99.90;;;;;;4160511;28;20116;-67
2021/04/05 03:36:05;;;;;;;29.33;14.13;;;7.60;99.90;;;;;;4159941;28;20129;-67
2021/04/05 03:38:08;;;;;;;37.85;15.05;;;7.60;99.90;;;;;;4158218;28;20037;-67
2021/04/05 03:40:10;;;;;;;33.42;15.95;;;7.60;99.90;;;;;;4160712;28;20025;-67
2021/04/05 03:42:14;;;;;;;30.30;15.02;;;7.60;99.90;;;;;;4155889;28;20029;-67
2021/04/05 03:44:27;;;;;;;36.25;15.27;;;7.60;99.90;;;;;;4157353;28;20489;-67
2021/04/05 03:46:32;;;;;;;32.53;16.27;;;7.60;99.90;;;;;;4159858;28;20044;-67
2021/04/05 03:48:38;;;;;;;28.85;14.63;;;7.60;99.90;;;;;;4158835;28;20041;-67
2021/04/05 03:51:04;;;;;;;35.58;15.32;;;7.60;99.90;;;;;;4158226;28;20058;-67
2021/04/05 03:53:41;;;;;;;27.23;14.40;;;7.60;99.90;;;;;;4168022;28;20033;-67
2021/04/05 03:55:45;;;;;;;37.10;15.68;;;7.60;99.90;;;;;;4159278;28;20072;-67
2021/04/05 03:57:49;;;;;;;31.75;14.65;;;7.60;99.90;;;;;;4159244;28;20025;-68
2021/04/05 03:59:52;;;;;;;34.33;14.82;;;7.60;99.90;;;;;;4157643;28;20037;-67
2021/04/05 04:01:58;;;;;;;26.30;14.95;;;7.60;99.90;;;;;;4159663;28;20042;-67
2021/04/05 04:04:10;;;;;;;31.42;16.17;;;7.60;99.90;;;;;;4163120;28;20488;-68
2021/04/05 04:06:13;;;;;;;30.83;15.27;;;7.60;99.90;;;;;;4157448;28;20025;-67
2021/04/05 04:08:33;;;;;;;38.28;15.52;;;7.50;99.90;;;;;;4162789;28;20449;-68
2021/04/05 04:10:36;;;;;;;29.60;13.52;;;7.50;99.90;;;;;;4158810;28;20033;-67
2021/04/05 04:12:39;;;;;;;31.38;15.45;;;7.60;99.90;;;;;;4162058;28;20482;-67
2021/04/05 04:14:41;;;;;;;33.40;15.57;;;7.50;99.90;;;;;;4162907;28;20033;-67
2021/04/05 04:16:47;;;;;;;45.22;16.55;;;7.50;99.90;;;;;;4161894;28;20037;-68
2021/04/05 04:18:49;;;;;;;41.83;16.55;;;7.50;99.90;;;;;;4161356;28;20044;-68
2021/04/05 04:20:50;;;;;;;33.45;15.30;;;7.50;99.90;;;;;;4167745;28;20037;-68
2021/04/05 04:22:51;;;;;;;41.13;15.63;;;7.50;99.90;;;;;;4169323;28;20032;-67
2021/04/05 04:24:53;;;;;;;32.13;15.02;;;7.50;99.90;;;;;;4164300;28;20037;-67
2021/04/05 04:26:54;;;;;;;43.83;16.42;;;7.50;99.90;;;;;;4160920;28;20055;-67
2021/04/05 04:28:54;;;;;;;31.83;14.20;;;7.50;99.90;;;;;;4177826;28;20058;-67
2021/04/05 04:30:56;;;;;;;25.20;14.13;;;7.50;99.90;;;;;;4163965;28;20029;-67
2021/04/05 04:33:05;;;;;;;30.50;14.63;;;7.50;99.90;;;;;;4155606;28;20033;-67
2021/04/05 04:35:09;;;;;;;35.03;16.38;;;7.50;99.90;;;;;;4163539;28;20152;-67
2021/04/05 04:37:11;;;;;;;31.08;15.63;;;7.50;99.90;;;;;;4156300;28;20374;-67
2021/04/05 04:39:12;;;;;;;30.15;15.32;;;7.50;99.90;;;;;;4164330;28;20439;-67
2021/04/05 04:41:29;;;;;;;35.47;16.02;;;7.50;99.90;;;;;;4162045;28;20034;-67
2021/04/05 04:43:29;;;;;;;40.58;17.17;;;7.50;99.90;;;;;;4159469;28;20021;-68
2021/04/05 04:45:31;;;;;;;34.30;17.25;;;7.50;99.90;;;;;;4160792;28;20417;-67
2021/04/05 04:47:32;;;;;;;37.20;16.15;;;7.50;99.90;;;;;;4183061;28;20029;-67
2021/04/05 04:49:33;;;;;;;28.73;15.18;;;7.50;99.90;;;;;;4164207;28;20053;-67
2021/04/05 04:51:35;;;;;;;32.28;15.80;;;7.50;99.90;;;;;;4187637;28;20028;-67
2021/04/05 04:53:36;;;;;;;33.60;16.30;;;7.50;99.90;;;;;;4158356;28;20026;-67
2021/04/05 04:55:38;;;;;;;39.05;17.52;;;7.40;99.90;;;;;;4167581;28;20057;-67
2021/04/05 04:57:39;;;;;;;28.00;15.77;;;7.40;99.90;;;;;;4159304;28;20037;-67
2021/04/05 04:59:40;;;;;;;37.25;16.88;;;7.50;99.90;;;;;;4167774;28;20503;-67
2021/04/05 05:01:43;;;;;;;31.40;16.23;;;7.50;99.90;;;;;;4173854;28;20056;-68
2021/04/05 05:03:52;;;;;;;31.27;15.18;;;7.50;99.90;;;;;;4168469;28;20078;-67
2021/04/05 05:05:53;;;;;;;32.92;16.02;;;7.50;99.90;;;;;;4155233;28;20497;-68
2021/04/05 05:07:55;;;;;;;39.17;18.20;;;7.50;99.90;;;;;;4162000;28;20024;-68
2021/04/05 05:09:55;;;;;;;41.55;17.77;;;7.50;99.90;;;;;;4166826;28;20049;-67
2021/04/05 05:11:56;;;;;;;38.33;16.40;;;7.50;99.90;;;;;;4162819;28;20022;-67
2021/04/05 05:13:57;;;;;;;35.85;17.38;;;7.50;99.90;;;;;;4163384;28;20091;-67
2021/04/05 05:15:58;;;;;;;37.03;17.27;;;7.50;99.90;;;;;;4169187;28;20111;-68
2021/04/05 05:17:59;;;;;;;38.00;16.85;;;7.60;99.90;;;;;;4162176;28;20034;-67
2021/04/05 05:20:00;;;;;;;35.38;16.40;;;7.50;99.90;;;;;;4163183;28;20498;-67
2021/04/05 05:22:02;;;;;;;32.15;15.82;;;7.60;99.90;;;;;;4175978;28;20115;-68
2021/04/05 05:24:08;;;;;;;39.27;17.23;;;7.50;99.90;;;;;;4159730;28;20033;-67
2021/04/05 05:26:11;;;;;;;34.47;16.52;;;7.60;99.90;;;;;;4166784;28;20195;-68
2021/04/05 05:28:14;;;;;;;36.10;17.52;;;7.60;99.90;;;;;;4186137;28;20066;-67
2021/04/05 05:30:25;;;;;;;38.08;17.13;;;7.60;99.90;;;;;;4170115;28;20036;-67
2021/04/05 05:32:26;;;;;;;39.90;17.35;;;7.60;99.90;;;;;;4167804;28;20030;-67
2021/04/05 05:34:26;;;;;;;38.17;17.05;;;7.60;99.90;;;;;;4182251;28;20055;-67
2021/04/05 05:36:27;;;;;;;38.55;18.35;;;7.60;99.90;;;;;;4136193;28;20045;-67
2021/04/05 05:38:28;;;;;;;38.13;17.10;;;7.60;99.90;;;;;;4164105;28;20075;-67
2021/04/05 05:40:31;;;;;;;41.65;19.33;;;7.60;99.90;;;;;;4182687;28;20049;-67
2021/04/05 05:43:08;;;;;;;34.65;16.83;;;7.60;99.90;;;;;;4183095;28;20107;-67
2021/04/05 05:45:14;;;;;;;33.65;17.77;;;7.60;99.90;;;;;;4179434;28;20037;-67
2021/04/05 05:47:52;;;;;;;39.38;19.02;;;7.70;99.90;;;;;;4168821;28;20140;-67
2021/04/05 05:50:06;;;;;;;39.00;18.42;;;7.70;99.90;;;;;;4153442;28;20632;-67
2021/04/05 05:52:29;;;;;;;36.78;19.42;;;7.70;99.90;;;;;;4155886;28;20045;-67
2021/04/05 05:55:13;;;;;;;42.13;20.05;;;7.70;99.90;;;;;;4166153;28;20513;-67
2021/04/05 05:57:28;;;;;;;39.58;18.80;;;7.70;99.90;;;;;;4161722;28;20029;-67
2021/04/05 05:59:55;;;;;;;38.53;18.77;;;7.70;99.90;;;;;;4165000;28;20376;-68
2021/04/05 06:02:22;;;;;;;36.67;18.85;;;7.70;99.90;;;;;;4163587;28;20037;-67
2021/04/05 06:04:47;;;;;;;35.70;17.95;;;7.70;99.90;;;;;;4132759;28;20041;-67
2021/04/05 06:07:14;;;;;;;43.88;20.20;;;7.70;99.90;;;;;;4158910;28;20036;-67
2021/04/05 06:09:32;;;;;;;44.00;18.08;;;7.70;99.90;;;;;;4179582;28;20029;-67
2021/04/05 06:11:52;;;;;;;41.30;17.95;;;7.70;99.90;;;;;;4161136;28;20033;-67
2021/04/05 06:14:00;;;;;;;33.85;17.27;;;7.70;99.90;;;;;;4160626;28;20111;-67
2021/04/05 06:16:16;;;;;;;38.95;19.60;;;7.80;99.90;;;;;;4160281;28;20045;-67
2021/04/05 06:18:26;;;;;;;46.22;22.33;;;7.80;99.90;;;;;;4159933;28;20048;-67
2021/04/05 06:20:37;;;;;;;43.47;19.92;;;7.80;99.90;;;;;;4159538;28;20124;-67
2021/04/05 06:22:47;;;;;;;41.40;19.50;;;7.80;99.90;;;;;;4160781;28;21421;-67
2021/04/05 06:24:53;;;;;;;39.40;19.80;;;7.80;99.90;;;;;;4158469;28;20065;-67
2021/04/05 06:26:59;;;;;;;41.05;18.55;;;7.80;99.90;;;;;;4159462;28;20641;-68
2021/04/05 06:29:27;;;;;;;36.30;18.45;;;7.90;99.90;;;;;;4160952;28;20481;-67
2021/04/05 06:31:43;;;;;;;46.60;20.20;;;7.90;99.90;;;;;;4154764;28;20049;-67
2021/04/05 06:33:51;;;;;;;35.97;20.55;;;7.90;99.90;;;;;;4159568;28;20037;-67
2021/04/05 06:36:06;;;;;;;39.92;19.90;;;8.00;99.90;;;;;;4170146;28;20037;-67
2021/04/05 06:38:27;;;;;;;37.88;19.35;;;8.00;99.90;;;;;;4162044;28;20029;-67
2021/04/05 06:40:31;;;;;;;45.50;20.92;;;8.00;99.90;;;;;;4177416;28;20033;-67
2021/04/05 06:43:09;;;;;;;39.92;20.05;;;8.00;99.90;;;;;;4160299;28;20075;-67
2021/04/05 06:45:20;;;;;;;44.25;20.40;;;7.90;99.90;;;;;;4159783;28;20095;-67
2021/04/05 06:48:01;;;;;;;41.22;20.13;;;7.90;99.90;;;;;;4159815;28;20397;-67
2021/04/05 06:50:24;;;;;;;41.88;20.27;;;8.00;99.90;;;;;;4154926;28;20540;-68
2021/04/05 06:52:38;;;;;;;;;;;7.90;99.90;;;;;;4160727;28;20109;-68
2021/04/05 06:55:00;;;;;;;40.95;19.92;;;8.00;99.90;;;;;;4162706;28;19917;-69
2021/04/05 06:57:10;;;;;;;44.10;21.02;;;8.00;99.90;;;;;;4160796;28;20047;-68
2021/04/05 06:59:32;;;;;;;41.08;20.98;;;8.00;99.90;;;;;;4155473;28;20109;-68
2021/04/05 07:02:02;;;;;;;58.47;22.70;;;8.00;99.90;;;;;;4173098;28;20036;-68
2021/04/05 07:04:21;;;;;;;44.03;22.52;;;8.00;99.90;;;;;;4185891;28;20421;-68
2021/04/05 07:06:48;;;;;;;39.95;20.15;;;8.00;99.90;;;;;;4164452;28;20664;-68
2021/04/05 07:09:24;;;;;;;44.67;21.00;;;8.00;99.90;;;;;;4174343;28;20513;-68
2021/04/05 07:11:35;;;;;;;43.63;21.60;;;8.00;99.90;;;;;;4157293;28;20041;-68
2021/04/05 07:13:47;;;;;;;42.17;20.75;;;8.00;99.90;;;;;;4153010;28;20092;-68
2021/04/05 07:15:52;;;;;;;;;;;8.00;99.90;;;;;;4157959;28;20025;-68
2021/04/05 07:18:30;;;;;;;40.78;19.40;;;8.00;99.90;;;;;;4164291;28;19920;-68
2021/04/05 07:20:54;;;;;;;17.95;8.73;;;7.90;99.90;;;;;;4157892;28;20038;-68
2021/04/05 07:22:57;;;;;;;;;;;7.60;99.90;;;;;;4160883;28;20367;-67
2021/04/05 07:25:02;;;;;;;;;;;7.50;99.90;;;;;;4158905;28;19979;-68
2021/04/05 07:27:11;;;;;;;9.27;5.28;;;7.40;99.90;;;;;;4159589;28;19913;-68
2021/04/05 07:29:19;;;;;;;9.52;4.43;;;7.30;99.90;;;;;;4160217;28;20053;-68
2021/04/05 07:31:31;;;;;;;7.43;3.72;;;7.20;99.90;;;;;;4159217;28;20043;-68
2021/04/05 07:33:37;;;;;;;10.43;3.20;;;7.10;99.90;;;;;;4184453;28;20036;-68
2021/04/05 07:35:43;;;;;;;6.57;2.88;;;7.00;99.90;;;;;;4159916;28;20057;-69
2021/04/05 07:38:10;;;;;;;5.32;2.47;;;7.00;99.90;;;;;;4160280;28;20667;-69
2021/04/05 07:40:53;;;;;;;6.57;2.63;;;6.90;99.90;;;;;;4156255;28;20030;-69
2021/04/05 07:43:11;;;;;;;4.13;2.28;;;6.80;99.90;;;;;;4131900;28;20033;-69
2021/04/05 07:45:18;;;;;;;11.23;2.97;;;6.80;99.90;;;;;;4157195;28;20071;-69
2021/04/05 07:47:32;;;;;;;9.00;2.70;;;6.80;99.90;;;;;;4156984;28;20030;-69
2021/04/05 07:49:40;;;;;;;6.32;2.67;;;6.80;99.90;;;;;;4163774;28;20030;-69
2021/04/05 07:51:47;;;;;;;5.38;2.42;;;6.80;99.90;;;;;;4173622;28;20040;-69
2021/04/05 07:53:57;;;;;;;5.38;2.13;;;6.80;99.90;;;;;;4157924;28;20025;-69
2021/04/05 07:56:13;;;;;;;4.88;2.28;;;6.80;99.90;;;;;;4158368;28;20034;-69
2021/04/05 07:58:52;;;;;;;7.13;2.45;;;6.80;99.90;;;;;;4154490;28;20075;-69
2021/04/05 08:01:02;;;;;;;7.22;2.28;;;6.70;99.90;;;;;;4156044;28;20030;-69
2021/04/05 08:03:10;;;;;;;3.22;1.58;;;6.70;99.90;;;;;;4158572;28;20053;-69
2021/04/05 08:05:32;;;;;;;5.88;2.28;;;6.80;99.90;;;;;;4158767;28;20036;-69
2021/04/05 08:07:48;;;;;;;3.58;2.03;;;6.70;99.90;;;;;;4157378;28;20056;-69
2021/04/05 08:10:15;;;;;;;5.43;1.90;;;6.80;99.90;;;;;;4157066;28;20037;-69
2021/04/05 08:12:28;;;;;;;6.63;1.80;;;6.80;99.90;;;;;;4159548;28;20479;-69
2021/04/05 08:14:43;;;;;;;3.72;1.55;;;6.70;99.90;;;;;;4160232;28;20543;-69
2021/04/05 08:17:01;;;;;;;7.72;2.30;;;6.70;99.90;;;;;;4159706;28;20071;-69
2021/04/05 08:19:30;;;;;;;6.47;1.80;;;6.70;99.90;;;;;;4153500;28;24774;-69
2021/04/05 08:21:38;;;;;;;6.40;1.80;;;6.70;99.90;;;;;;4154839;28;20124;-69
2021/04/05 08:23:58;;;;;;;6.32;1.50;;;6.60;99.90;;;;;;4158752;28;20033;-69
2021/04/05 08:26:26;;;;;;;6.57;1.83;;;6.60;99.90;;;;;;4155224;28;20042;-69
2021/04/05 08:29:03;;;;;;;3.90;1.55;;;6.60;99.90;;;;;;4158577;28;20022;-69
2021/04/05 08:31:33;;;;;;;6.07;1.73;;;6.60;99.90;;;;;;4154951;28;20033;-69
2021/04/05 08:34:00;;;;;;;3.10;1.20;;;6.70;99.90;;;;;;4158428;28;20034;-69
2021/04/05 08:36:13;;;;;;;4.72;1.35;;;6.70;99.90;;;;;;4173919;28;20641;-69
2021/04/05 08:38:51;;;;;;;7.32;1.48;;;6.70;99.90;;;;;;4159167;28;20455;-69
2021/04/05 08:41:01;;;;;;;3.45;1.30;;;6.60;99.90;;;;;;4158572;28;20025;-69
2021/04/05 08:43:30;;;;;;;4.32;0.93;;;6.60;99.90;;;;;;4162592;28;20057;-69
2021/04/05 08:46:05;;;;;;;2.03;0.50;;;6.50;99.90;;;;;;4155329;28;20474;-68
2021/04/05 08:48:19;;;;;;;4.88;1.10;;;6.30;99.90;;;;;;4174009;28;20095;-68
2021/04/05 08:50:23;;;;;;;1.38;0.43;;;6.20;99.90;;;;;;4158743;28;20105;-68
2021/04/05 08:52:27;;;;;;;6.63;1.02;;;6.00;99.90;;;;;;4158704;28;20105;-68
2021/04/05 08:54:29;;;;;;;2.50;1.13;;;5.90;99.90;;;;;;4158221;28;20083;-69
2021/04/05 08:56:42;;;;;;;2.35;0.60;;;5.80;99.90;;;;;;4158910;28;20366;-69
2021/04/05 08:58:52;;;;;;;4.30;0.70;;;5.70;99.90;;;;;;4164399;28;20059;-68
2021/04/05 09:00:58;;;;;;;3.17;0.82;;;5.60;99.90;;;;;;4148226;28;20501;-69
2021/04/05 09:03:05;;;;;;;3.80;0.70;;;5.70;99.90;;;;;;4165293;28;20051;-69
2021/04/05 09:05:14;;;;;;;4.47;1.02;;;5.70;99.90;;;;;;4157953;28;20045;-68
2021/04/05 09:07:34;;;;;;;7.43;1.25;;;5.60;99.90;;;;;;4159070;28;20053;-69
2021/04/05 09:09:36;;;;;;;7.93;1.60;;;5.40;99.90;;;;;;4161258;28;20030;-68
2021/04/05 09:11:41;;;;;;;14.57;2.00;;;5.40;99.90;;;;;;4155237;28;20440;-68
2021/04/05 09:13:50;;;;;;;11.70;2.40;;;5.30;99.90;;;;;;4157803;28;20768;-68
2021/04/05 09:15:59;;;;;;;11.93;2.20;;;5.10;99.90;;;;;;4158502;28;20033;-68
2021/04/05 09:18:27;;;;;;;18.35;2.58;;;5.10;99.90;;;;;;4155735;28;20030;-68
2021/04/05 09:20:52;;;;;;;18.20;2.42;;;5.00;99.90;;;;;;4181678;28;20063;-68
2021/04/05 09:23:06;;;;;;;14.55;2.78;;;5.00;99.90;;;;;;4156410;28;20038;-68
2021/04/05 09:25:17;;;;;;;15.45;3.03;;;5.10;99.90;;;;;;4173326;28;20059;-69
2021/04/05 09:27:49;;;;;;;15.75;2.80;;;5.10;99.90;;;;;;4157391;28;20045;-69
2021/04/05 09:30:28;;;;;;;20.10;2.80;;;5.10;99.90;;;;;;4158426;28;20025;-68
2021/04/05 09:33:02;;;;;;;14.98;2.75;;;5.00;99.90;;;;;;4138538;28;20034;-69
2021/04/05 09:35:25;;;;;;;9.80;1.50;;;5.10;99.90;;;;;;4154547;28;20037;-69
2021/04/05 09:37:59;;;;;;;13.67;2.30;;;5.10;99.90;;;;;;4158273;28;20497;-68
2021/04/05 09:40:38;;;;;;;10.85;2.60;;;5.10;99.90;;;;;;4158623;28;20121;-69
2021/04/05 09:43:03;;;;;;;13.38;2.33;;;5.20;99.90;;;;;;4140904;28;20049;-69
2021/04/05 09:45:16;;;;;;;13.48;2.40;;;5.20;99.90;;;;;;4157917;28;20053;-69
2021/04/05 09:47:32;;;;;;;24.60;3.22;;;5.30;99.90;;;;;;4164207;28;20064;-69
2021/04/05 09:49:38;;;;;;;10.88;2.03;;;5.30;99.90;;;;;;4159651;28;20088;-69
2021/04/05 09:51:48;;;;;;;15.20;3.45;;;5.40;99.90;;;;;;4161616;28;20037;-69
2021/04/05 09:54:15;;;;;;;12.90;2.80;;;5.50;99.90;;;;;;4160878;28;20056;-69
2021/04/05 09:56:21;;;;;;;20.17;3.45;;;5.50;99.90;;;;;;4188327;28;20499;-69
2021/04/05 09:58:24;;;;;;;14.20;3.00;;;5.60;99.90;;;;;;4161713;28;20531;-69
2021/04/05 10:00:26;;;;;;;19.33;3.75;;;5.70;99.90;;;;;;4161573;28;20029;-69
2021/04/05 10:02:34;;;;;;;20.65;3.47;;;5.80;99.90;;;;;;4159297;28;20052;-69
2021/04/05 10:04:37;;;;;;;17.63;3.55;;;5.80;99.90;;;;;;4159207;28;20075;-69
2021/04/05 10:06:39;;;;;;;17.63;3.55;;;5.90;99.90;;;;;;4159484;28;20099;-69
2021/04/05 10:08:42;;;;;;;16.60;3.08;;;5.90;99.90;;;;;;4161118;28;20038;-69
2021/04/05 10:10:45;;;;;;;18.33;3.22;;;5.90;99.90;;;;;;4160729;28;20029;-69
2021/04/05 10:12:47;;;;;;;16.67;3.25;;;6.00;99.90;;;;;;4160325;28;20017;-69
2021/04/05 10:14:50;;;;;;;13.07;2.42;;;6.00;99.90;;;;;;4174531;28;20116;-69
2021/04/05 10:16:53;;;;;;;;;;;6.00;99.90;;;;;;4187416;28;20056;-69
2021/04/05 10:19:08;;;;;;;11.40;1.90;;;6.00;99.90;;;;;;4160539;28;19921;-69
2021/04/05 10:21:10;;;;;;;12.18;2.28;;;5.90;99.90;;;;;;4160530;28;20042;-69
2021/04/05 10:23:12;;;;;;;9.20;2.55;;;5.90;99.90;;;;;;4175368;28;20436;-69
2021/04/05 10:25:15;;;;;;;7.95;1.77;;;5.90;99.90;;;;;;4158600;28;20724;-69
2021/04/05 10:27:19;;;;;;;5.95;1.70;;;6.00;99.90;;;;;;4160970;28;20048;-69
2021/04/05 10:29:24;;;;;;;12.93;1.88;;;6.00;99.90;;;;;;4159864;28;20160;-69
2021/04/05 10:31:26;;;;;;;10.00;1.80;;;5.90;99.90;;;;;;4159646;28;20029;-68
2021/04/05 10:33:32;;;;;;;8.27;1.35;;;5.80;99.90;;;;;;4160771;28;20034;-68
2021/04/05 10:35:37;;;;;;;2.38;0.82;;;5.60;99.90;;;;;;4173986;28;20374;-69
2021/04/05 10:37:45;;;;;;;4.72;1.23;;;5.50;99.90;;;;;;4175892;28;20071;-69
2021/04/05 10:39:50;;;;;;;6.28;0.88;;;5.50;99.90;;;;;;4159189;28;20034;-69
2021/04/05 10:42:02;;;;;;;3.00;1.13;;;5.60;99.90;;;;;;4156499;28;20375;-69
2021/04/05 10:44:09;;;;;;;6.55;0.95;;;5.50;99.90;;;;;;4165092;28;20442;-68
2021/04/05 10:46:40;;;;;;;5.35;1.15;;;5.40;99.90;;;;;;4161987;28;20033;-68
2021/04/05 10:48:55;;;;;;;2.17;0.40;;;5.00;99.90;;;;;;4155162;28;20688;-68
2021/04/05 10:51:04;;;;;;;2.35;0.55;;;4.80;99.90;;;;;;4161494;28;20033;-68
2021/04/05 10:53:09;;;;;;;1.45;0.47;;;4.70;99.90;;;;;;4160007;28;20071;-68
2021/04/05 10:55:22;;;;;;;0.60;0.40;;;4.70;99.90;;;;;;4160579;28;20029;-68
2021/04/05 10:57:30;;;;;;;5.70;0.60;;;4.70;99.90;;;;;;4165246;28;20121;-69
2021/04/05 10:59:41;;;;;;;2.88;0.65;;;4.70;99.90;;;;;;4160086;28;20314;-69
2021/04/05 11:01:50;;;;;;;1.73;0.63;;;4.70;99.90;;;;;;4160962;28;20090;-69
2021/04/05 11:03:52;;;;;;;3.97;1.15;;;4.70;99.90;;;;;;4183223;28;20128;-69
2021/04/05 11:06:00;;;;;;;5.38;1.20;;;4.70;99.90;;;;;;4160368;28;20038;-69
2021/04/05 11:08:03;;;;;;;6.47;1.17;;;4.80;99.90;;;;;;4162752;28;20042;-69
2021/04/05 11:10:09;;;;;;;6.80;1.23;;;4.80;99.90;;;;;;4181286;28;20044;-69